sensor_id;sensor_type;location;lat;lon;timestamp;temperature;humidity
44843;DHT22;31884;52.538;13.820;2023-10-19T00:00:35;5.80;98.60
44843;DHT22;31884;52.538;13.820;2023-10-19T00:03:02;5.80;99.10
44843;DHT22;31884;52.538;13.820;2023-10-19T00:05:32;5.90;99.00
44843;DHT22;31884;52.538;13.820;2023-10-19T00:07:58;5.90;99.40
44843;DHT22;31884;52.538;13.820;2023-10-19T00:10:27;5.80;99.00
44843;DHT22;31884;52.538;13.820;2023-10-19T00:13:03;5.80;99.20
44843;DHT22;31884;52.538;13.820;2023-10-19T00:15:34;5.90;99.30
44843;DHT22;31884;52.538;13.820;2023-10-19T00:18:03;5.90;99.10
44843;DHT22;31884;52.538;13.820;2023-10-19T00:20:47;5.90;99.00
44843;DHT22;31884;52.538;13.820;2023-10-19T00:23:13;5.90;99.10
44843;DHT22;31884;52.538;13.820;2023-10-19T00:25:40;5.90;99.40
44843;DHT22;31884;52.538;13.820;2023-10-19T00:28:07;5.90;99.40
44843;DHT22;31884;52.538;13.820;2023-10-19T00:30:32;5.90;99.40
44843;DHT22;31884;52.538;13.820;2023-10-19T00:33:01;5.90;99.30
44843;DHT22;31884;52.538;13.820;2023-10-19T00:35:33;5.90;99.30
44843;DHT22;31884;52.538;13.820;2023-10-19T00:38:07;5.90;99.40
44843;DHT22;31884;52.538;13.820;2023-10-19T00:40:51;5.90;99.50
44843;DHT22;31884;52.538;13.820;2023-10-19T00:43:29;5.90;99.40
44843;DHT22;31884;52.538;13.820;2023-10-19T00:45:58;5.90;99.50
44843;DHT22;31884;52.538;13.820;2023-10-19T00:48:26;5.90;99.50
44843;DHT22;31884;52.538;13.820;2023-10-19T00:50:53;5.90;99.30
44843;DHT22;31884;52.538;13.820;2023-10-19T00:53:33;5.90;99.30
44843;DHT22;31884;52.538;13.820;2023-10-19T00:55:59;5.80;99.40
44843;DHT22;31884;52.538;13.820;2023-10-19T00:58:26;5.80;99.70
44843;DHT22;31884;52.538;13.820;2023-10-19T01:00:55;5.80;99.50
44843;DHT22;31884;52.538;13.820;2023-10-19T01:03:21;5.80;99.60
44843;DHT22;31884;52.538;13.820;2023-10-19T01:05:47;5.80;99.80
44843;DHT22;31884;52.538;13.820;2023-10-19T01:08:14;5.90;99.80
44843;DHT22;31884;52.538;13.820;2023-10-19T01:10:51;5.80;99.90
44843;DHT22;31884;52.538;13.820;2023-10-19T01:13:18;5.80;99.80
44843;DHT22;31884;52.538;13.820;2023-10-19T01:15:44;5.80;99.90
44843;DHT22;31884;52.538;13.820;2023-10-19T01:18:14;5.80;99.80
44843;DHT22;31884;52.538;13.820;2023-10-19T01:20:42;5.90;99.80
44843;DHT22;31884;52.538;13.820;2023-10-19T01:23:16;5.90;99.80
44843;DHT22;31884;52.538;13.820;2023-10-19T01:25:56;5.90;99.70
44843;DHT22;31884;52.538;13.820;2023-10-19T01:28:24;5.90;99.60
44843;DHT22;31884;52.538;13.820;2023-10-19T01:31:13;5.90;99.60
44843;DHT22;31884;52.538;13.820;2023-10-19T01:33:48;5.90;99.70
44843;DHT22;31884;52.538;13.820;2023-10-19T01:36:14;5.90;99.60
44843;DHT22;31884;52.538;13.820;2023-10-19T01:38:41;5.90;99.60
44843;DHT22;31884;52.538;13.820;2023-10-19T01:41:09;5.90;99.70
44843;DHT22;31884;52.538;13.820;2023-10-19T01:43:45;5.90;99.60
44843;DHT22;31884;52.538;13.820;2023-10-19T01:46:13;5.90;99.60
44843;DHT22;31884;52.538;13.820;2023-10-19T01:48:39;5.90;99.70
44843;DHT22;31884;52.538;13.820;2023-10-19T01:51:10;5.80;99.70
44843;DHT22;31884;52.538;13.820;2023-10-19T01:53:37;5.80;99.80
44843;DHT22;31884;52.538;13.820;2023-10-19T01:56:10;5.80;99.90
44843;DHT22;31884;52.538;13.820;2023-10-19T01:58:40;5.90;99.90
44843;DHT22;31884;52.538;13.820;2023-10-19T02:01:06;5.90;99.60
44843;DHT22;31884;52.538;13.820;2023-10-19T02:03:40;5.80;99.50
44843;DHT22;31884;52.538;13.820;2023-10-19T02:06:10;5.90;99.60
44843;DHT22;31884;52.538;13.820;2023-10-19T02:08:46;5.90;99.60
44843;DHT22;31884;52.538;13.820;2023-10-19T02:11:23;5.80;99.60
44843;DHT22;31884;52.538;13.820;2023-10-19T02:13:50;5.80;99.60
44843;DHT22;31884;52.538;13.820;2023-10-19T02:16:17;5.80;99.70
44843;DHT22;31884;52.538;13.820;2023-10-19T02:18:47;5.80;99.90
44843;DHT22;31884;52.538;13.820;2023-10-19T02:21:12;5.80;99.90
44843;DHT22;31884;52.538;13.820;2023-10-19T02:23:41;5.80;99.90
44843;DHT22;31884;52.538;13.820;2023-10-19T02:26:07;5.80;99.90
44843;DHT22;31884;52.538;13.820;2023-10-19T02:28:33;5.80;99.90
44843;DHT22;31884;52.538;13.820;2023-10-19T02:31:03;5.80;99.90
44843;DHT22;31884;52.538;13.820;2023-10-19T02:33:42;5.80;99.90
44843;DHT22;31884;52.538;13.820;2023-10-19T02:36:14;5.80;99.90
44843;DHT22;31884;52.538;13.820;2023-10-19T02:38:47;5.80;99.90
44843;DHT22;31884;52.538;13.820;2023-10-19T02:41:18;5.90;99.90
44843;DHT22;31884;52.538;13.820;2023-10-19T02:43:45;5.90;99.90
44843;DHT22;31884;52.538;13.820;2023-10-19T02:46:17;5.90;99.70
44843;DHT22;31884;52.538;13.820;2023-10-19T02:48:43;5.90;99.60
44843;DHT22;31884;52.538;13.820;2023-10-19T02:51:15;5.90;99.70
44843;DHT22;31884;52.538;13.820;2023-10-19T02:53:41;5.90;99.70
44843;DHT22;31884;52.538;13.820;2023-10-19T02:56:11;5.90;99.70
44843;DHT22;31884;52.538;13.820;2023-10-19T02:58:42;5.90;99.90
44843;DHT22;31884;52.538;13.820;2023-10-19T03:01:18;6.00;99.60
44843;DHT22;31884;52.538;13.820;2023-10-19T03:03:48;6.00;99.50
44843;DHT22;31884;52.538;13.820;2023-10-19T03:06:18;6.00;99.40
44843;DHT22;31884;52.538;13.820;2023-10-19T03:08:45;6.00;99.30
44843;DHT22;31884;52.538;13.820;2023-10-19T03:11:12;6.00;99.30
44843;DHT22;31884;52.538;13.820;2023-10-19T03:13:38;6.00;99.30
44843;DHT22;31884;52.538;13.820;2023-10-19T03:16:06;6.00;99.40
44843;DHT22;31884;52.538;13.820;2023-10-19T03:18:36;5.90;99.60
44843;DHT22;31884;52.538;13.820;2023-10-19T03:21:04;5.90;99.70
44843;DHT22;31884;52.538;13.820;2023-10-19T03:23:29;5.90;99.80
44843;DHT22;31884;52.538;13.820;2023-10-19T03:25:59;5.90;99.90
44843;DHT22;31884;52.538;13.820;2023-10-19T03:28:51;5.90;99.90
44843;DHT22;31884;52.538;13.820;2023-10-19T03:31:33;5.90;99.90
44843;DHT22;31884;52.538;13.820;2023-10-19T03:34:02;5.90;99.90
44843;DHT22;31884;52.538;13.820;2023-10-19T03:36:31;5.80;99.90
44843;DHT22;31884;52.538;13.820;2023-10-19T03:38:58;5.80;99.90
44843;DHT22;31884;52.538;13.820;2023-10-19T03:41:30;5.80;99.90
44843;DHT22;31884;52.538;13.820;2023-10-19T03:44:01;5.70;99.90
44843;DHT22;31884;52.538;13.820;2023-10-19T03:46:26;5.70;99.90
44843;DHT22;31884;52.538;13.820;2023-10-19T03:49:00;5.70;99.90
44843;DHT22;31884;52.538;13.820;2023-10-19T03:51:38;5.70;99.90
44843;DHT22;31884;52.538;13.820;2023-10-19T03:54:24;5.70;99.90
44843;DHT22;31884;52.538;13.820;2023-10-19T03:56:50;5.70;99.90
44843;DHT22;31884;52.538;13.820;2023-10-19T03:59:19;5.70;99.90
44843;DHT22;31884;52.538;13.820;2023-10-19T04:01:47;5.70;99.90
44843;DHT22;31884;52.538;13.820;2023-10-19T04:04:13;5.60;99.90
44843;DHT22;31884;52.538;13.820;2023-10-19T04:06:42;5.60;99.90
44843;DHT22;31884;52.538;13.820;2023-10-19T04:09:13;5.60;99.90
44843;DHT22;31884;52.538;13.820;2023-10-19T04:11:42;5.60;99.90
44843;DHT22;31884;52.538;13.820;2023-10-19T04:14:17;5.60;99.90
44843;DHT22;31884;52.538;13.820;2023-10-19T04:16:43;5.60;99.90
44843;DHT22;31884;52.538;13.820;2023-10-19T04:19:10;5.60;99.90
44843;DHT22;31884;52.538;13.820;2023-10-19T04:21:36;5.60;99.90
44843;DHT22;31884;52.538;13.820;2023-10-19T04:24:05;5.60;99.90
44843;DHT22;31884;52.538;13.820;2023-10-19T04:26:33;5.70;99.90
44843;DHT22;31884;52.538;13.820;2023-10-19T04:29:02;5.60;99.90
44843;DHT22;31884;52.538;13.820;2023-10-19T04:31:35;5.60;99.90
44843;DHT22;31884;52.538;13.820;2023-10-19T04:34:03;5.60;99.90
44843;DHT22;31884;52.538;13.820;2023-10-19T04:36:33;5.70;99.90
44843;DHT22;31884;52.538;13.820;2023-10-19T04:38:59;5.70;99.90
44843;DHT22;31884;52.538;13.820;2023-10-19T04:41:25;5.70;99.90
44843;DHT22;31884;52.538;13.820;2023-10-19T04:43:54;5.60;99.90
44843;DHT22;31884;52.538;13.820;2023-10-19T04:46:20;5.60;99.90
44843;DHT22;31884;52.538;13.820;2023-10-19T04:48:46;5.60;99.90
44843;DHT22;31884;52.538;13.820;2023-10-19T04:51:11;5.70;99.90
44843;DHT22;31884;52.538;13.820;2023-10-19T04:53:37;5.60;99.90
44843;DHT22;31884;52.538;13.820;2023-10-19T04:56:04;5.60;99.90
44843;DHT22;31884;52.538;13.820;2023-10-19T04:58:30;5.60;99.90
44843;DHT22;31884;52.538;13.820;2023-10-19T05:00:56;5.60;99.90
44843;DHT22;31884;52.538;13.820;2023-10-19T05:03:24;5.60;99.90
44843;DHT22;31884;52.538;13.820;2023-10-19T05:05:49;5.60;99.90
44843;DHT22;31884;52.538;13.820;2023-10-19T05:08:15;5.60;99.90
44843;DHT22;31884;52.538;13.820;2023-10-19T05:10:40;5.60;99.90
44843;DHT22;31884;52.538;13.820;2023-10-19T05:13:07;5.60;99.90
44843;DHT22;31884;52.538;13.820;2023-10-19T05:15:32;5.60;99.90
44843;DHT22;31884;52.538;13.820;2023-10-19T05:18:00;5.60;99.90
44843;DHT22;31884;52.538;13.820;2023-10-19T05:20:25;5.60;99.90
44843;DHT22;31884;52.538;13.820;2023-10-19T05:22:51;5.60;99.90
44843;DHT22;31884;52.538;13.820;2023-10-19T05:25:16;5.60;99.90
44843;DHT22;31884;52.538;13.820;2023-10-19T05:27:42;5.60;99.90
44843;DHT22;31884;52.538;13.820;2023-10-19T05:30:08;5.60;99.90
44843;DHT22;31884;52.538;13.820;2023-10-19T05:32:36;5.60;99.90
44843;DHT22;31884;52.538;13.820;2023-10-19T05:35:02;5.70;99.90
44843;DHT22;31884;52.538;13.820;2023-10-19T05:37:30;5.60;99.90
44843;DHT22;31884;52.538;13.820;2023-10-19T05:39:56;5.60;99.90
44843;DHT22;31884;52.538;13.820;2023-10-19T05:42:21;5.70;99.90
44843;DHT22;31884;52.538;13.820;2023-10-19T05:44:47;5.70;99.90
44843;DHT22;31884;52.538;13.820;2023-10-19T05:47:13;5.70;99.90
44843;DHT22;31884;52.538;13.820;2023-10-19T05:49:38;5.70;99.90
44843;DHT22;31884;52.538;13.820;2023-10-19T05:52:04;5.70;99.90
44843;DHT22;31884;52.538;13.820;2023-10-19T05:54:29;5.70;99.90
44843;DHT22;31884;52.538;13.820;2023-10-19T05:56:55;5.70;99.90
44843;DHT22;31884;52.538;13.820;2023-10-19T05:59:21;5.70;99.90
44843;DHT22;31884;52.538;13.820;2023-10-19T06:01:48;5.70;99.90
44843;DHT22;31884;52.538;13.820;2023-10-19T06:04:14;5.70;99.90
44843;DHT22;31884;52.538;13.820;2023-10-19T06:06:39;5.70;99.90
44843;DHT22;31884;52.538;13.820;2023-10-19T06:09:06;5.80;99.90
44843;DHT22;31884;52.538;13.820;2023-10-19T06:11:34;5.80;99.90
44843;DHT22;31884;52.538;13.820;2023-10-19T06:14:01;5.80;99.90
44843;DHT22;31884;52.538;13.820;2023-10-19T06:16:27;5.80;99.90
44843;DHT22;31884;52.538;13.820;2023-10-19T06:18:54;5.80;99.90
44843;DHT22;31884;52.538;13.820;2023-10-19T06:21:20;5.80;99.90
44843;DHT22;31884;52.538;13.820;2023-10-19T06:23:45;5.80;99.90
44843;DHT22;31884;52.538;13.820;2023-10-19T06:26:11;5.80;99.90
44843;DHT22;31884;52.538;13.820;2023-10-19T06:28:38;5.80;99.90
44843;DHT22;31884;52.538;13.820;2023-10-19T06:31:05;5.90;99.90
44843;DHT22;31884;52.538;13.820;2023-10-19T06:33:30;5.80;99.90
44843;DHT22;31884;52.538;13.820;2023-10-19T06:36:07;5.90;99.90
44843;DHT22;31884;52.538;13.820;2023-10-19T06:38:34;5.90;99.90
44843;DHT22;31884;52.538;13.820;2023-10-19T06:41:00;5.90;99.90
44843;DHT22;31884;52.538;13.820;2023-10-19T06:43:28;5.90;99.90
44843;DHT22;31884;52.538;13.820;2023-10-19T06:45:55;5.90;99.90
44843;DHT22;31884;52.538;13.820;2023-10-19T06:48:21;6.00;99.90
44843;DHT22;31884;52.538;13.820;2023-10-19T06:50:47;6.00;99.90
44843;DHT22;31884;52.538;13.820;2023-10-19T06:53:12;6.00;99.90
44843;DHT22;31884;52.538;13.820;2023-10-19T06:55:38;5.90;99.90
44843;DHT22;31884;52.538;13.820;2023-10-19T06:58:04;6.00;99.90
44843;DHT22;31884;52.538;13.820;2023-10-19T07:00:30;5.90;99.90
44843;DHT22;31884;52.538;13.820;2023-10-19T07:02:56;5.90;99.90
44843;DHT22;31884;52.538;13.820;2023-10-19T07:05:23;6.00;99.90
44843;DHT22;31884;52.538;13.820;2023-10-19T07:07:50;5.90;99.90
44843;DHT22;31884;52.538;13.820;2023-10-19T07:10:17;5.90;99.90
44843;DHT22;31884;52.538;13.820;2023-10-19T07:12:45;6.00;99.90
44843;DHT22;31884;52.538;13.820;2023-10-19T07:15:12;5.90;99.90
44843;DHT22;31884;52.538;13.820;2023-10-19T07:17:41;6.00;99.90
44843;DHT22;31884;52.538;13.820;2023-10-19T07:20:08;6.00;99.90
44843;DHT22;31884;52.538;13.820;2023-10-19T07:22:35;6.10;99.90
44843;DHT22;31884;52.538;13.820;2023-10-19T07:25:05;6.10;99.90
44843;DHT22;31884;52.538;13.820;2023-10-19T07:27:32;6.20;99.90
44843;DHT22;31884;52.538;13.820;2023-10-19T07:29:59;6.20;99.90
44843;DHT22;31884;52.538;13.820;2023-10-19T07:32:24;6.30;99.90
44843;DHT22;31884;52.538;13.820;2023-10-19T07:34:50;6.40;99.90
44843;DHT22;31884;52.538;13.820;2023-10-19T07:37:15;6.40;99.90
44843;DHT22;31884;52.538;13.820;2023-10-19T07:39:47;6.40;99.90
44843;DHT22;31884;52.538;13.820;2023-10-19T07:42:14;6.40;99.90
44843;DHT22;31884;52.538;13.820;2023-10-19T07:44:40;6.50;99.90
44843;DHT22;31884;52.538;13.820;2023-10-19T07:47:05;6.50;99.90
44843;DHT22;31884;52.538;13.820;2023-10-19T07:49:37;6.60;99.90
44843;DHT22;31884;52.538;13.820;2023-10-19T07:52:06;6.60;99.90
44843;DHT22;31884;52.538;13.820;2023-10-19T07:54:33;6.60;99.90
44843;DHT22;31884;52.538;13.820;2023-10-19T07:56:59;6.60;99.90
44843;DHT22;31884;52.538;13.820;2023-10-19T07:59:29;6.70;99.90
44843;DHT22;31884;52.538;13.820;2023-10-19T08:01:54;6.70;99.90
44843;DHT22;31884;52.538;13.820;2023-10-19T08:04:19;6.70;99.90
44843;DHT22;31884;52.538;13.820;2023-10-19T08:06:45;6.70;99.90
44843;DHT22;31884;52.538;13.820;2023-10-19T08:09:12;6.80;99.90
44843;DHT22;31884;52.538;13.820;2023-10-19T08:11:37;6.90;99.90
44843;DHT22;31884;52.538;13.820;2023-10-19T08:14:03;6.90;99.90
44843;DHT22;31884;52.538;13.820;2023-10-19T08:16:28;6.90;99.90
44843;DHT22;31884;52.538;13.820;2023-10-19T08:18:54;6.90;99.90
44843;DHT22;31884;52.538;13.820;2023-10-19T08:21:19;6.90;99.90
44843;DHT22;31884;52.538;13.820;2023-10-19T08:23:46;7.00;99.90
44843;DHT22;31884;52.538;13.820;2023-10-19T08:26:13;7.10;99.80
44843;DHT22;31884;52.538;13.820;2023-10-19T08:28:40;7.10;99.40
44843;DHT22;31884;52.538;13.820;2023-10-19T08:31:08;7.20;99.20
44843;DHT22;31884;52.538;13.820;2023-10-19T08:33:35;7.20;99.30
44843;DHT22;31884;52.538;13.820;2023-10-19T08:36:04;7.20;99.20
44843;DHT22;31884;52.538;13.820;2023-10-19T08:38:30;7.20;99.40
44843;DHT22;31884;52.538;13.820;2023-10-19T08:40:55;7.20;99.20
44843;DHT22;31884;52.538;13.820;2023-10-19T08:43:21;7.30;99.10
44843;DHT22;31884;52.538;13.820;2023-10-19T08:45:47;7.30;99.00
44843;DHT22;31884;52.538;13.820;2023-10-19T08:48:13;7.40;99.10
44843;DHT22;31884;52.538;13.820;2023-10-19T08:50:39;7.40;98.70
44843;DHT22;31884;52.538;13.820;2023-10-19T08:53:07;7.40;98.80
44843;DHT22;31884;52.538;13.820;2023-10-19T08:55:34;7.40;99.10
44843;DHT22;31884;52.538;13.820;2023-10-19T08:58:03;7.40;99.20
44843;DHT22;31884;52.538;13.820;2023-10-19T09:00:51;7.40;99.40
44843;DHT22;31884;52.538;13.820;2023-10-19T09:03:19;7.50;99.60
44843;DHT22;31884;52.538;13.820;2023-10-19T09:05:47;7.40;99.90
44843;DHT22;31884;52.538;13.820;2023-10-19T09:08:16;7.30;99.90
44843;DHT22;31884;52.538;13.820;2023-10-19T09:10:44;7.30;99.90
44843;DHT22;31884;52.538;13.820;2023-10-19T09:13:10;7.30;99.90
44843;DHT22;31884;52.538;13.820;2023-10-19T09:15:38;7.30;99.90
44843;DHT22;31884;52.538;13.820;2023-10-19T09:18:24;7.30;99.90
44843;DHT22;31884;52.538;13.820;2023-10-19T09:20:53;7.40;99.90
44843;DHT22;31884;52.538;13.820;2023-10-19T09:23:22;7.40;99.90
44843;DHT22;31884;52.538;13.820;2023-10-19T09:25:52;7.40;99.90
44843;DHT22;31884;52.538;13.820;2023-10-19T09:28:21;7.40;99.90
44843;DHT22;31884;52.538;13.820;2023-10-19T09:30:50;7.40;99.90
44843;DHT22;31884;52.538;13.820;2023-10-19T09:33:17;7.40;99.90
44843;DHT22;31884;52.538;13.820;2023-10-19T09:35:47;7.40;99.90
44843;DHT22;31884;52.538;13.820;2023-10-19T09:38:15;7.40;99.90
44843;DHT22;31884;52.538;13.820;2023-10-19T09:40:40;7.50;99.90
44843;DHT22;31884;52.538;13.820;2023-10-19T09:43:11;7.50;99.90
44843;DHT22;31884;52.538;13.820;2023-10-19T09:45:41;7.50;99.90
44843;DHT22;31884;52.538;13.820;2023-10-19T09:48:08;7.50;99.90
44843;DHT22;31884;52.538;13.820;2023-10-19T09:50:34;7.60;99.90
44843;DHT22;31884;52.538;13.820;2023-10-19T09:53:01;7.70;99.90
44843;DHT22;31884;52.538;13.820;2023-10-19T09:55:33;7.90;99.90
44843;DHT22;31884;52.538;13.820;2023-10-19T09:58:04;8.00;99.70
44843;DHT22;31884;52.538;13.820;2023-10-19T10:00:31;8.10;99.30
44843;DHT22;31884;52.538;13.820;2023-10-19T10:02:57;8.20;98.60
44843;DHT22;31884;52.538;13.820;2023-10-19T10:10:49;8.30;97.70
44843;DHT22;31884;52.538;13.820;2023-10-19T10:13:36;8.30;97.40
44843;DHT22;31884;52.538;13.820;2023-10-19T10:16:02;8.40;96.50
44843;DHT22;31884;52.538;13.820;2023-10-19T10:18:33;8.40;96.90
44843;DHT22;31884;52.538;13.820;2023-10-19T10:21:10;8.40;96.90
44843;DHT22;31884;52.538;13.820;2023-10-19T10:23:53;8.40;96.80
44843;DHT22;31884;52.538;13.820;2023-10-19T10:26:21;8.40;96.60
44843;DHT22;31884;52.538;13.820;2023-10-19T10:31:35;8.30;96.30
44843;DHT22;31884;52.538;13.820;2023-10-19T10:34:08;8.40;96.40
44843;DHT22;31884;52.538;13.820;2023-10-19T10:36:57;8.40;96.50
44843;DHT22;31884;52.538;13.820;2023-10-19T10:39:26;8.40;95.90
44843;DHT22;31884;52.538;13.820;2023-10-19T10:41:58;8.50;96.10
44843;DHT22;31884;52.538;13.820;2023-10-19T10:44:49;8.50;95.90
44843;DHT22;31884;52.538;13.820;2023-10-19T10:47:18;8.50;95.70
44843;DHT22;31884;52.538;13.820;2023-10-19T10:49:52;8.50;95.70
44843;DHT22;31884;52.538;13.820;2023-10-19T10:57:39;8.50;95.70
44843;DHT22;31884;52.538;13.820;2023-10-19T11:00:06;8.40;95.40
44843;DHT22;31884;52.538;13.820;2023-10-19T11:02:35;8.40;95.70
44843;DHT22;31884;52.538;13.820;2023-10-19T11:05:01;8.40;96.20
44843;DHT22;31884;52.538;13.820;2023-10-19T11:07:27;8.40;96.10
44843;DHT22;31884;52.538;13.820;2023-10-19T11:09:52;8.40;96.30
44843;DHT22;31884;52.538;13.820;2023-10-19T11:12:18;8.40;96.30
44843;DHT22;31884;52.538;13.820;2023-10-19T11:14:58;8.40;96.40
44843;DHT22;31884;52.538;13.820;2023-10-19T11:17:42;8.40;96.40
44843;DHT22;31884;52.538;13.820;2023-10-19T11:20:08;8.40;96.30
44843;DHT22;31884;52.538;13.820;2023-10-19T11:22:56;8.30;96.40
44843;DHT22;31884;52.538;13.820;2023-10-19T11:25:24;8.30;96.70
44843;DHT22;31884;52.538;13.820;2023-10-19T11:27:54;8.40;96.60
44843;DHT22;31884;52.538;13.820;2023-10-19T11:30:27;8.40;96.80
44843;DHT22;31884;52.538;13.820;2023-10-19T11:32:54;8.40;96.90
44843;DHT22;31884;52.538;13.820;2023-10-19T11:35:27;8.50;96.70
44843;DHT22;31884;52.538;13.820;2023-10-19T11:37:56;8.40;96.60
44843;DHT22;31884;52.538;13.820;2023-10-19T11:40:23;8.50;96.80
44843;DHT22;31884;52.538;13.820;2023-10-19T11:42:49;8.50;96.90
44843;DHT22;31884;52.538;13.820;2023-10-19T11:45:16;8.50;97.00
44843;DHT22;31884;52.538;13.820;2023-10-19T11:47:42;8.50;96.90
44843;DHT22;31884;52.538;13.820;2023-10-19T11:50:08;8.50;96.70
44843;DHT22;31884;52.538;13.820;2023-10-19T11:52:33;8.60;96.80
44843;DHT22;31884;52.538;13.820;2023-10-19T11:54:59;8.60;96.60
44843;DHT22;31884;52.538;13.820;2023-10-19T11:57:24;8.60;96.70
44843;DHT22;31884;52.538;13.820;2023-10-19T11:59:50;8.60;96.70
44843;DHT22;31884;52.538;13.820;2023-10-19T12:02:19;8.60;96.80
44843;DHT22;31884;52.538;13.820;2023-10-19T12:04:45;8.70;96.70
44843;DHT22;31884;52.538;13.820;2023-10-19T12:07:11;8.70;96.00
44843;DHT22;31884;52.538;13.820;2023-10-19T12:09:36;8.60;96.00
44843;DHT22;31884;52.538;13.820;2023-10-19T12:12:02;8.60;96.30
44843;DHT22;31884;52.538;13.820;2023-10-19T12:14:31;8.50;96.30
44843;DHT22;31884;52.538;13.820;2023-10-19T12:16:59;8.50;96.50
44843;DHT22;31884;52.538;13.820;2023-10-19T12:19:29;8.50;96.50
44843;DHT22;31884;52.538;13.820;2023-10-19T12:21:55;8.50;96.70
44843;DHT22;31884;52.538;13.820;2023-10-19T12:24:20;8.50;96.80
44843;DHT22;31884;52.538;13.820;2023-10-19T12:26:46;8.60;96.70
44843;DHT22;31884;52.538;13.820;2023-10-19T12:29:12;8.60;96.50
44843;DHT22;31884;52.538;13.820;2023-10-19T12:31:40;8.60;96.40
44843;DHT22;31884;52.538;13.820;2023-10-19T12:34:06;8.60;96.40
44843;DHT22;31884;52.538;13.820;2023-10-19T12:36:33;8.60;96.20
44843;DHT22;31884;52.538;13.820;2023-10-19T12:39:00;8.60;96.30
44843;DHT22;31884;52.538;13.820;2023-10-19T12:41:26;8.60;96.30
44843;DHT22;31884;52.538;13.820;2023-10-19T12:43:53;8.50;96.70
44843;DHT22;31884;52.538;13.820;2023-10-19T12:46:25;8.50;96.80
44843;DHT22;31884;52.538;13.820;2023-10-19T12:48:52;8.50;97.40
44843;DHT22;31884;52.538;13.820;2023-10-19T12:51:21;8.40;97.70
44843;DHT22;31884;52.538;13.820;2023-10-19T12:53:51;8.40;98.20
44843;DHT22;31884;52.538;13.820;2023-10-19T12:56:18;8.30;98.80
44843;DHT22;31884;52.538;13.820;2023-10-19T12:58:43;8.20;99.90
44843;DHT22;31884;52.538;13.820;2023-10-19T13:01:08;8.10;99.90
44843;DHT22;31884;52.538;13.820;2023-10-19T13:03:42;8.00;99.90
44843;DHT22;31884;52.538;13.820;2023-10-19T13:06:11;8.00;99.90
44843;DHT22;31884;52.538;13.820;2023-10-19T13:08:37;7.90;99.90
44843;DHT22;31884;52.538;13.820;2023-10-19T13:11:03;7.90;99.90
44843;DHT22;31884;52.538;13.820;2023-10-19T13:13:28;7.80;99.90
44843;DHT22;31884;52.538;13.820;2023-10-19T13:15:54;7.70;99.90
44843;DHT22;31884;52.538;13.820;2023-10-19T13:18:19;7.60;99.90
44843;DHT22;31884;52.538;13.820;2023-10-19T13:20:47;7.60;99.90
44843;DHT22;31884;52.538;13.820;2023-10-19T13:23:14;7.50;99.90
44843;DHT22;31884;52.538;13.820;2023-10-19T13:25:47;7.50;99.90
44843;DHT22;31884;52.538;13.820;2023-10-19T13:28:16;7.40;99.90
44843;DHT22;31884;52.538;13.820;2023-10-19T13:30:54;7.40;99.90
44843;DHT22;31884;52.538;13.820;2023-10-19T13:33:20;7.40;99.90
44843;DHT22;31884;52.538;13.820;2023-10-19T13:35:47;7.40;99.90
44843;DHT22;31884;52.538;13.820;2023-10-19T13:38:14;7.40;99.90
44843;DHT22;31884;52.538;13.820;2023-10-19T13:40:41;7.50;99.90
44843;DHT22;31884;52.538;13.820;2023-10-19T13:43:09;7.40;99.90
44843;DHT22;31884;52.538;13.820;2023-10-19T13:45:39;7.40;99.90
44843;DHT22;31884;52.538;13.820;2023-10-19T13:48:07;7.40;99.90
44843;DHT22;31884;52.538;13.820;2023-10-19T13:50:34;7.40;99.90
44843;DHT22;31884;52.538;13.820;2023-10-19T13:53:00;7.50;99.90
44843;DHT22;31884;52.538;13.820;2023-10-19T13:55:27;7.50;99.90
44843;DHT22;31884;52.538;13.820;2023-10-19T13:57:54;7.40;99.90
44843;DHT22;31884;52.538;13.820;2023-10-19T14:00:22;7.40;99.90
44843;DHT22;31884;52.538;13.820;2023-10-19T14:03:01;7.40;99.90
44843;DHT22;31884;52.538;13.820;2023-10-19T14:05:34;7.40;99.90
44843;DHT22;31884;52.538;13.820;2023-10-19T14:08:01;7.40;99.90
44843;DHT22;31884;52.538;13.820;2023-10-19T14:10:29;7.40;99.90
44843;DHT22;31884;52.538;13.820;2023-10-19T14:12:56;7.40;99.90
44843;DHT22;31884;52.538;13.820;2023-10-19T14:15:21;7.40;99.90
44843;DHT22;31884;52.538;13.820;2023-10-19T14:17:48;7.40;99.90
44843;DHT22;31884;52.538;13.820;2023-10-19T14:20:15;7.40;99.90
44843;DHT22;31884;52.538;13.820;2023-10-19T14:22:51;7.40;99.90
44843;DHT22;31884;52.538;13.820;2023-10-19T14:25:19;7.40;99.90
44843;DHT22;31884;52.538;13.820;2023-10-19T14:27:47;7.40;99.90
44843;DHT22;31884;52.538;13.820;2023-10-19T14:30:18;7.40;99.90
44843;DHT22;31884;52.538;13.820;2023-10-19T14:32:47;7.40;99.90
44843;DHT22;31884;52.538;13.820;2023-10-19T14:35:14;7.40;99.90
44843;DHT22;31884;52.538;13.820;2023-10-19T14:37:42;7.40;99.90
44843;DHT22;31884;52.538;13.820;2023-10-19T14:40:12;7.40;99.90
44843;DHT22;31884;52.538;13.820;2023-10-19T14:42:43;7.40;99.90
44843;DHT22;31884;52.538;13.820;2023-10-19T14:45:10;7.40;99.90
44843;DHT22;31884;52.538;13.820;2023-10-19T14:47:46;7.40;99.90
44843;DHT22;31884;52.538;13.820;2023-10-19T14:50:12;7.40;99.90
44843;DHT22;31884;52.538;13.820;2023-10-19T14:52:40;7.40;99.90
44843;DHT22;31884;52.538;13.820;2023-10-19T14:55:06;7.40;99.90
44843;DHT22;31884;52.538;13.820;2023-10-19T14:57:33;7.30;99.90
44843;DHT22;31884;52.538;13.820;2023-10-19T14:59:59;7.30;99.90
44843;DHT22;31884;52.538;13.820;2023-10-19T15:02:34;7.30;99.90
44843;DHT22;31884;52.538;13.820;2023-10-19T15:05:01;7.30;99.90
44843;DHT22;31884;52.538;13.820;2023-10-19T15:07:26;7.30;99.90
44843;DHT22;31884;52.538;13.820;2023-10-19T15:09:52;7.30;99.90
44843;DHT22;31884;52.538;13.820;2023-10-19T15:12:18;7.20;99.90
44843;DHT22;31884;52.538;13.820;2023-10-19T15:14:44;7.20;99.90
44843;DHT22;31884;52.538;13.820;2023-10-19T15:17:10;7.20;99.90
44843;DHT22;31884;52.538;13.820;2023-10-19T15:19:36;7.20;99.90
44843;DHT22;31884;52.538;13.820;2023-10-19T15:22:01;7.20;99.90
44843;DHT22;31884;52.538;13.820;2023-10-19T15:24:27;7.20;99.90
44843;DHT22;31884;52.538;13.820;2023-10-19T15:26:52;7.20;99.90
44843;DHT22;31884;52.538;13.820;2023-10-19T15:29:18;7.20;99.90
44843;DHT22;31884;52.538;13.820;2023-10-19T15:31:43;7.20;99.90
44843;DHT22;31884;52.538;13.820;2023-10-19T15:34:09;7.20;99.90
44843;DHT22;31884;52.538;13.820;2023-10-19T15:36:35;7.10;99.90
44843;DHT22;31884;52.538;13.820;2023-10-19T15:39:00;7.20;99.90
44843;DHT22;31884;52.538;13.820;2023-10-19T15:41:26;7.10;99.90
44843;DHT22;31884;52.538;13.820;2023-10-19T15:43:51;7.10;99.90
44843;DHT22;31884;52.538;13.820;2023-10-19T15:46:17;7.10;99.90
44843;DHT22;31884;52.538;13.820;2023-10-19T15:48:44;7.10;99.90
44843;DHT22;31884;52.538;13.820;2023-10-19T15:51:10;7.10;99.90